createdAt,value
2018-06-18T00:00:47.030Z,90.66
2018-06-18T00:01:47.007Z,90.27
2018-06-18T00:02:46.978Z,89.50
2018-06-18T00:03:46.953Z,90.84
2018-06-18T00:04:46.935Z,90.75
2018-06-18T00:05:46.905Z,90.08
2018-06-18T00:06:46.884Z,91.23
2018-06-18T00:07:46.865Z,90.94
2018-06-18T00:08:46.835Z,88.73
2018-06-18T00:09:46.811Z,90.66
2018-06-18T00:10:46.785Z,90.56
2018-06-18T00:11:46.760Z,90.84
2018-06-18T00:12:46.733Z,90.27
2018-06-18T00:13:46.711Z,89.60
2018-06-18T00:14:46.694Z,89.02
2018-06-18T00:15:46.658Z,89.60
2018-06-18T00:16:46.640Z,90.56
2018-06-18T00:17:46.615Z,89.79
2018-06-18T00:18:46.588Z,89.69
2018-06-18T00:19:46.568Z,89.60
2018-06-18T00:20:46.546Z,89.12
2018-06-18T00:21:46.514Z,90.08
2018-06-18T00:22:46.494Z,89.50
2018-06-18T00:23:46.464Z,89.50
2018-06-18T00:24:46.442Z,89.60
2018-06-18T00:25:46.415Z,88.64
2018-06-18T00:26:46.398Z,90.46
2018-06-18T00:27:46.368Z,90.46
2018-06-18T00:28:46.346Z,89.69
2018-06-18T00:29:46.322Z,89.50
2018-06-18T00:30:46.293Z,88.93
2018-06-18T00:31:46.268Z,90.46
2018-06-18T00:32:46.249Z,89.60
2018-06-18T00:33:46.217Z,88.73
2018-06-18T00:34:46.197Z,89.98
2018-06-18T00:35:46.176Z,89.69
2018-06-18T00:36:46.143Z,89.12
2018-06-18T00:37:46.125Z,89.36
2018-06-18T00:38:46.097Z,90.46
2018-06-18T00:39:46.069Z,89.12
2018-06-18T00:40:46.057Z,89.84
2018-06-18T00:41:46.025Z,89.26
2018-06-18T00:42:45.997Z,89.55
2018-06-18T00:43:45.977Z,89.07
2018-06-18T00:44:45.949Z,89.55
2018-06-18T00:45:45.924Z,89.94
2018-06-18T00:46:45.905Z,90.27
2018-06-18T00:47:45.881Z,90.22
2018-06-18T00:48:45.866Z,89.40
2018-06-18T00:49:45.828Z,90.84
2018-06-18T00:50:45.801Z,89.55
2018-06-18T00:51:45.779Z,90.03
2018-06-18T00:52:45.755Z,89.46
2018-06-18T00:53:45.725Z,88.35
2018-06-18T00:54:45.708Z,89.79
2018-06-18T00:55:45.678Z,89.36
2018-06-18T00:56:48.156Z,89.26
2018-06-18T00:57:45.626Z,89.36
2018-06-18T00:58:45.602Z,89.84
2018-06-18T00:59:45.583Z,89.26
2018-06-18T01:00:45.560Z,89.46
2018-06-18T01:01:45.535Z,89.36
2018-06-18T01:02:45.502Z,89.26
2018-06-18T01:03:45.489Z,89.65
2018-06-18T01:04:45.452Z,89.55
2018-06-18T01:05:45.430Z,88.31
2018-06-18T01:06:45.430Z,88.49
2018-06-18T01:07:45.378Z,88.40
2018-06-18T01:08:45.363Z,89.07
2018-06-18T01:09:45.330Z,90.22
2018-06-18T01:10:45.312Z,88.88
2018-06-18T01:11:45.282Z,88.69
2018-06-18T01:12:45.259Z,88.98
2018-06-18T01:13:45.233Z,88.21
2018-06-18T01:14:45.214Z,88.49
2018-06-18T01:15:45.190Z,88.88
2018-06-18T01:16:45.158Z,88.69
2018-06-18T01:17:45.138Z,89.55
2018-06-18T01:18:45.108Z,89.46
2018-06-18T01:19:45.083Z,88.79
2018-06-18T01:20:45.061Z,88.02
2018-06-18T01:21:45.049Z,88.40
2018-06-18T01:22:45.031Z,90.03
2018-06-18T01:23:44.993Z,88.11
2018-06-18T01:24:44.958Z,87.92
2018-06-18T01:25:44.940Z,89.36
2018-06-18T01:26:44.912Z,89.26
2018-06-18T01:27:44.890Z,88.40
2018-06-18T01:28:44.862Z,89.65
2018-06-18T01:29:44.836Z,89.46
2018-06-18T01:30:44.812Z,88.79
2018-06-18T01:31:44.792Z,88.11
2018-06-18T01:32:44.762Z,88.31
2018-06-18T01:33:44.743Z,88.40
2018-06-18T01:34:44.711Z,88.11
2018-06-18T01:35:44.690Z,88.49
2018-06-18T01:36:44.661Z,88.02
2018-06-18T01:37:44.643Z,88.21
2018-06-18T01:38:44.615Z,88.69
2018-06-18T01:39:44.588Z,88.49
2018-06-18T01:40:44.571Z,88.59
2018-06-18T01:41:44.547Z,88.21
2018-06-18T01:42:44.515Z,87.92
2018-06-18T01:43:44.492Z,87.82
2018-06-18T01:44:44.477Z,88.59
2018-06-18T01:45:44.444Z,88.79
2018-06-18T01:46:44.416Z,88.49
2018-06-18T01:47:44.442Z,87.63
2018-06-18T01:48:44.372Z,88.02
2018-06-18T01:49:44.349Z,87.92
2018-06-18T01:50:44.320Z,88.02
2018-06-18T01:51:44.296Z,89.36
2018-06-18T01:52:44.278Z,87.63
2018-06-18T01:53:44.252Z,87.54
2018-06-18T01:54:44.218Z,88.73
2018-06-18T01:55:44.197Z,89.36
2018-06-18T01:56:44.174Z,88.31
2018-06-18T01:57:44.151Z,87.44
2018-06-18T01:58:44.124Z,87.29
2018-06-18T01:59:44.095Z,87.49
2018-06-18T02:00:44.080Z,87.49
2018-06-18T02:01:44.046Z,87.44
2018-06-18T02:02:44.032Z,88.02
2018-06-18T02:03:44.003Z,87.82
2018-06-18T02:04:43.979Z,89.17
2018-06-18T02:05:43.953Z,89.26
2018-06-18T02:06:43.925Z,89.17
2018-06-18T02:07:43.905Z,89.36
2018-06-18T02:08:43.877Z,88.79
2018-06-18T02:09:43.856Z,88.49
2018-06-18T02:10:43.827Z,88.69
2018-06-18T02:11:43.807Z,89.69
2018-06-18T02:12:43.779Z,88.73
2018-06-18T02:13:43.757Z,89.84
2018-06-18T02:14:43.741Z,89.55
2018-06-18T02:15:43.710Z,89.69
2018-06-18T02:16:43.688Z,89.26
2018-06-18T02:17:43.653Z,89.50
2018-06-18T02:18:43.635Z,90.27
2018-06-18T02:19:43.606Z,89.40
2018-06-18T02:20:43.578Z,88.69
2018-06-18T02:21:43.554Z,88.98
2018-06-18T02:22:43.532Z,89.50
2018-06-18T02:23:43.504Z,89.26
2018-06-18T02:24:43.488Z,88.79
2018-06-18T02:25:43.464Z,89.98
2018-06-18T02:26:43.430Z,90.17
2018-06-18T02:27:43.409Z,90.52
2018-06-18T02:28:43.387Z,89.79
2018-06-18T02:29:43.358Z,89.69
2018-06-18T02:30:43.341Z,88.35
2018-06-18T02:31:43.314Z,91.23
2018-06-18T02:32:43.286Z,88.79
2018-06-18T02:33:43.258Z,90.46
2018-06-18T02:34:43.236Z,88.79
2018-06-18T02:35:43.218Z,90.42
2018-06-18T02:36:43.185Z,89.46
2018-06-18T02:37:43.187Z,89.65
2018-06-18T02:38:43.145Z,89.46
2018-06-18T02:39:43.128Z,89.26
2018-06-18T02:40:43.094Z,90.70
2018-06-18T02:41:43.067Z,89.26
2018-06-18T02:42:43.046Z,90.42
2018-06-18T02:43:43.017Z,89.94
2018-06-18T02:44:42.991Z,89.84
2018-06-18T02:45:42.965Z,90.46
2018-06-18T02:46:42.944Z,89.75
2018-06-18T02:47:42.920Z,89.60
2018-06-18T02:48:42.896Z,89.36
2018-06-18T02:49:42.874Z,90.37
2018-06-18T02:50:42.845Z,90.08
2018-06-18T02:51:42.820Z,89.98
2018-06-18T02:52:42.796Z,91.04
2018-06-18T02:53:42.773Z,90.46
2018-06-18T02:54:42.764Z,89.50
2018-06-18T02:55:42.722Z,90.94
2018-06-18T02:56:42.694Z,89.50
2018-06-18T02:57:42.673Z,89.60
2018-06-18T02:58:42.647Z,90.46
2018-06-18T02:59:42.621Z,89.40
2018-06-18T03:00:42.598Z,89.02
2018-06-18T03:01:42.568Z,89.89
2018-06-18T03:02:42.556Z,90.17
2018-06-18T03:03:42.520Z,89.60
2018-06-18T03:04:42.553Z,89.40
2018-06-18T03:05:42.476Z,90.08
2018-06-18T03:06:42.496Z,89.79
2018-06-18T03:07:42.420Z,88.73
2018-06-18T03:08:42.403Z,90.17
2018-06-18T03:09:42.385Z,90.75
2018-06-18T03:10:42.348Z,89.69
2018-06-18T03:11:42.329Z,88.93
2018-06-18T03:12:42.310Z,89.69
2018-06-18T03:13:42.273Z,89.60
2018-06-18T03:14:42.259Z,90.56
2018-06-18T03:15:42.229Z,89.60
2018-06-18T03:16:42.206Z,90.08
2018-06-18T03:17:42.177Z,90.03
2018-06-18T03:18:42.159Z,91.47
2018-06-18T03:19:42.130Z,90.70
2018-06-18T03:20:42.111Z,91.18
2018-06-18T03:21:42.086Z,90.31
2018-06-18T03:22:42.053Z,91.08
2018-06-18T03:23:42.037Z,90.31
2018-06-18T03:24:42.006Z,91.66
2018-06-18T03:25:41.999Z,89.45
2018-06-18T03:26:41.958Z,90.51
2018-06-18T03:27:41.937Z,90.12
2018-06-18T03:28:41.908Z,90.22
2018-06-18T03:29:41.889Z,89.83
2018-06-18T03:30:41.855Z,89.45
2018-06-18T03:31:41.841Z,89.64
2018-06-18T03:32:41.805Z,90.80
2018-06-18T03:33:41.783Z,88.49
2018-06-18T03:34:41.766Z,88.49
2018-06-18T03:35:41.737Z,90.31
2018-06-18T03:36:41.716Z,89.79
2018-06-18T03:37:41.686Z,89.93
2018-06-18T03:38:41.662Z,90.51
2018-06-18T03:39:41.642Z,90.31
2018-06-18T03:40:41.614Z,90.31
2018-06-18T03:41:41.588Z,90.03
2018-06-18T03:42:41.565Z,90.12
2018-06-18T03:43:41.539Z,89.74
2018-06-18T03:44:41.518Z,89.93
2018-06-18T03:45:41.486Z,90.89
2018-06-18T03:46:41.471Z,90.60
2018-06-18T03:47:41.440Z,89.74
2018-06-18T03:48:41.422Z,90.22
2018-06-18T03:49:41.396Z,90.60
2018-06-18T03:50:41.365Z,91.56
2018-06-18T03:51:41.348Z,90.60
2018-06-18T03:52:41.314Z,89.74
2018-06-18T03:53:41.320Z,90.70
2018-06-18T03:54:41.272Z,88.59
2018-06-18T03:55:41.243Z,91.28
2018-06-18T03:56:41.230Z,90.89
2018-06-18T03:57:41.198Z,89.93
2018-06-18T03:58:41.171Z,89.07
2018-06-18T03:59:41.151Z,89.54
2018-06-18T04:00:41.123Z,91.13
2018-06-18T04:01:41.102Z,89.45
2018-06-18T04:02:41.076Z,89.59
2018-06-18T04:03:41.048Z,90.26
2018-06-18T04:04:41.026Z,90.55
2018-06-18T04:05:41.022Z,89.78
2018-06-18T04:06:40.981Z,89.98
2018-06-18T04:07:40.949Z,90.03
2018-06-18T04:08:40.934Z,90.31
2018-06-18T04:09:40.909Z,90.45
2018-06-18T04:10:40.879Z,89.98
2018-06-18T04:11:40.854Z,89.11
2018-06-18T04:12:40.833Z,90.45
2018-06-18T04:13:40.812Z,92.09
2018-06-18T04:14:40.797Z,91.03
2018-06-18T04:15:40.762Z,89.88
2018-06-18T04:16:40.736Z,89.21
2018-06-18T04:17:40.720Z,91.71
2018-06-18T04:18:40.683Z,89.59
2018-06-18T04:19:40.662Z,90.75
2018-06-18T04:20:40.634Z,89.98
2018-06-18T04:21:40.856Z,89.11
2018-06-18T04:22:40.582Z,90.17
2018-06-18T04:23:40.563Z,90.07
2018-06-18T04:24:40.554Z,91.03
2018-06-18T04:25:40.517Z,90.55
2018-06-18T04:26:40.488Z,90.75
2018-06-18T04:27:40.468Z,90.07
2018-06-18T04:28:40.447Z,87.86
2018-06-18T04:29:40.416Z,90.75
2018-06-18T04:30:40.390Z,90.75
2018-06-18T04:31:40.369Z,89.88
2018-06-18T04:32:40.340Z,90.94
2018-06-18T04:33:40.318Z,89.69
2018-06-18T04:34:40.297Z,89.54
2018-06-18T04:35:40.273Z,88.24
2018-06-18T04:36:40.250Z,89.26
2018-06-18T04:37:40.301Z,89.40
2018-06-18T04:38:40.205Z,89.40
2018-06-18T04:39:40.174Z,89.30
2018-06-18T04:40:40.146Z,91.22
2018-06-18T04:41:40.118Z,90.94
2018-06-18T04:42:40.162Z,88.53
2018-06-18T04:43:40.078Z,90.65
2018-06-18T04:44:40.088Z,91.13
2018-06-18T04:45:40.025Z,89.93
2018-06-18T04:46:40.001Z,90.89
2018-06-18T04:47:40.009Z,90.41
2018-06-18T04:48:39.953Z,90.12
2018-06-18T04:49:39.928Z,90.89
2018-06-18T04:50:39.913Z,90.31
2018-06-18T04:51:39.877Z,91.28
2018-06-18T04:52:39.856Z,90.22
2018-06-18T04:53:39.826Z,90.80
2018-06-18T04:54:39.809Z,88.97
2018-06-18T04:55:39.779Z,87.92
2018-06-18T04:56:39.767Z,89.93
2018-06-18T04:57:39.736Z,90.70
2018-06-18T04:58:39.702Z,90.99
2018-06-18T04:59:39.687Z,88.87
2018-06-18T05:00:39.654Z,90.80
2018-06-18T05:01:39.641Z,90.70
2018-06-18T05:02:39.609Z,89.93
2018-06-18T05:03:39.586Z,88.68
2018-06-18T05:04:39.569Z,90.51
2018-06-18T05:05:39.535Z,90.80
2018-06-18T05:06:39.514Z,88.39
2018-06-18T05:07:39.488Z,90.31
2018-06-18T05:08:39.462Z,89.93
2018-06-18T05:09:39.467Z,88.10
2018-06-18T05:10:39.419Z,90.41
2018-06-18T05:11:39.387Z,90.12
2018-06-18T05:12:39.370Z,90.41
2018-06-18T05:13:39.341Z,90.51
2018-06-18T05:14:39.323Z,90.03
2018-06-18T05:15:39.291Z,89.74
2018-06-18T05:16:39.287Z,90.31
2018-06-18T05:17:39.254Z,90.41
2018-06-18T05:18:39.215Z,90.60
2018-06-18T05:19:39.196Z,87.82
2018-06-18T05:20:39.217Z,90.51
2018-06-18T05:21:39.147Z,89.40
2018-06-18T05:22:39.118Z,88.87
2018-06-18T05:23:39.092Z,90.31
2018-06-18T05:24:39.075Z,89.45
2018-06-18T05:25:39.052Z,90.80
2018-06-18T05:26:39.021Z,88.97
2018-06-18T05:27:38.996Z,90.89
2018-06-18T05:28:38.986Z,90.31
2018-06-18T05:29:38.953Z,90.41
2018-06-18T05:30:38.921Z,90.22
2018-06-18T05:31:38.904Z,90.51
2018-06-18T05:32:38.878Z,90.31
2018-06-18T05:33:38.844Z,90.99
2018-06-18T05:34:38.851Z,91.28
2018-06-18T05:35:38.804Z,89.26
2018-06-18T05:36:38.774Z,89.54
2018-06-18T05:37:38.759Z,89.26
2018-06-18T05:38:38.750Z,90.70
2018-06-18T05:39:38.713Z,90.17
2018-06-18T05:40:38.684Z,90.84
2018-06-18T05:41:38.649Z,90.41
2018-06-18T05:42:38.635Z,91.32
2018-06-18T05:43:38.608Z,91.13
2018-06-18T05:44:38.593Z,90.80
2018-06-18T05:45:38.555Z,90.03
2018-06-18T05:46:38.537Z,90.41
2018-06-18T05:47:38.528Z,90.31
2018-06-18T05:48:38.535Z,90.99
2018-06-18T05:49:38.457Z,90.03
2018-06-18T05:50:38.455Z,90.41
2018-06-18T05:51:38.414Z,90.60
2018-06-18T05:52:38.381Z,89.07
2018-06-18T05:53:38.354Z,89.07
2018-06-18T05:54:38.338Z,90.51
2018-06-18T05:55:38.306Z,89.07
2018-06-18T05:56:38.293Z,90.31
2018-06-18T05:57:38.261Z,89.93
2018-06-18T05:58:38.250Z,90.41
2018-06-18T05:59:38.221Z,87.38
2018-06-18T06:00:38.198Z,89.21
2018-06-18T06:01:38.163Z,88.78
2018-06-18T06:02:38.144Z,90.45
2018-06-18T06:03:38.118Z,90.65
2018-06-18T06:04:38.096Z,90.26
2018-06-18T06:05:38.065Z,90.36
2018-06-18T06:06:38.055Z,90.31
2018-06-18T06:07:38.013Z,88.15
2018-06-18T06:08:37.997Z,90.55
2018-06-18T06:09:37.968Z,90.17
2018-06-18T06:10:37.946Z,89.40
2018-06-18T06:11:37.920Z,89.21
2018-06-18T06:12:37.898Z,90.65
2018-06-18T06:13:37.866Z,90.45
2018-06-18T06:14:37.853Z,89.78
2018-06-18T06:15:37.827Z,89.40
2018-06-18T06:16:37.801Z,88.15
2018-06-18T06:17:37.774Z,89.64
2018-06-18T06:18:37.749Z,90.07
2018-06-18T06:19:37.725Z,89.78
2018-06-18T06:20:37.697Z,89.15
2018-06-18T06:21:37.681Z,90.98
2018-06-18T06:22:37.653Z,90.41
2018-06-18T06:23:37.627Z,90.98
2018-06-18T06:24:37.648Z,91.17
2018-06-18T06:25:37.607Z,90.79
2018-06-18T06:26:37.554Z,90.94
2018-06-18T06:27:37.533Z,89.59
2018-06-18T06:28:37.516Z,89.35
2018-06-18T06:29:37.549Z,91.17
2018-06-18T06:30:37.452Z,90.17
2018-06-18T06:31:37.434Z,90.50
2018-06-18T06:32:37.410Z,90.69
2018-06-18T06:33:37.382Z,89.73
2018-06-18T06:34:37.363Z,90.41
2018-06-18T06:35:37.337Z,89.15
2018-06-18T06:36:37.304Z,90.41
2018-06-18T06:37:37.290Z,90.98
2018-06-18T06:38:37.266Z,90.02
2018-06-18T06:39:37.239Z,90.89
2018-06-18T06:40:37.217Z,90.41
2018-06-18T06:41:37.188Z,89.06
2018-06-18T06:42:37.168Z,90.50
2018-06-18T06:43:37.147Z,89.64
2018-06-18T06:44:37.112Z,88.87
2018-06-18T06:45:37.089Z,89.64
2018-06-18T06:46:37.074Z,90.89
2018-06-18T06:47:37.049Z,91.46
2018-06-18T06:48:37.021Z,89.29
2018-06-18T06:49:36.992Z,90.21
2018-06-18T06:50:36.980Z,88.04
2018-06-18T06:51:36.950Z,90.45
2018-06-18T06:52:36.927Z,89.87
2018-06-18T06:53:36.907Z,89.68
2018-06-18T06:54:36.875Z,90.26
2018-06-18T06:55:36.849Z,89.58
2018-06-18T06:56:36.827Z,89.29
2018-06-18T06:57:36.805Z,91.31
2018-06-18T06:58:36.777Z,89.97
2018-06-18T06:59:36.758Z,87.99
2018-06-18T07:00:36.732Z,89.72
2018-06-18T07:01:36.711Z,90.88
2018-06-18T07:02:36.679Z,89.63
2018-06-18T07:03:36.656Z,90.59
2018-06-18T07:04:36.636Z,89.92
2018-06-18T07:05:36.613Z,90.35
2018-06-18T07:06:36.580Z,90.06
2018-06-18T07:07:36.565Z,90.26
2018-06-18T07:08:36.540Z,89.97
2018-06-18T07:09:36.511Z,89.97
2018-06-18T07:10:36.489Z,89.58
2018-06-18T07:11:36.461Z,90.88
2018-06-18T07:12:36.447Z,89.58
2018-06-18T07:13:36.516Z,88.91
2018-06-18T07:14:36.395Z,90.26
2018-06-18T07:15:36.371Z,90.16
2018-06-18T07:16:36.346Z,90.55
2018-06-18T07:17:36.322Z,90.06
2018-06-18T07:18:36.296Z,89.20
2018-06-18T07:19:36.274Z,91.03
2018-06-18T07:20:36.248Z,90.55
2018-06-18T07:21:36.221Z,89.97
2018-06-18T07:22:36.251Z,90.26
2018-06-18T07:23:36.195Z,88.71
2018-06-18T07:24:36.158Z,89.29
2018-06-18T07:25:36.135Z,89.20
2018-06-18T07:26:36.103Z,89.64
2018-06-18T07:27:36.081Z,88.77
2018-06-18T07:28:36.060Z,87.90
2018-06-18T07:29:36.028Z,88.57
2018-06-18T07:30:36.228Z,88.87
2018-06-18T07:31:35.990Z,88.77
2018-06-18T07:32:35.960Z,88.67
2018-06-18T07:33:35.941Z,88.48
2018-06-18T07:34:35.912Z,89.83
2018-06-18T07:35:35.893Z,87.46
2018-06-18T07:36:35.868Z,89.68
2018-06-18T07:37:35.847Z,90.06
2018-06-18T07:38:35.843Z,90.59
2018-06-18T07:39:35.798Z,90.50
2018-06-18T07:40:35.765Z,90.69
2018-06-18T07:41:35.744Z,89.92
2018-06-18T07:42:35.728Z,90.11
2018-06-18T07:43:35.698Z,89.53
2018-06-18T07:44:35.679Z,90.11
2018-06-18T07:45:35.675Z,90.11
2018-06-18T07:46:35.629Z,89.34
2018-06-18T07:47:35.608Z,90.40
2018-06-18T07:48:35.579Z,90.59
2018-06-18T07:49:35.550Z,88.09
2018-06-18T07:50:35.536Z,90.45
2018-06-18T07:51:35.596Z,89.87
2018-06-18T07:52:35.482Z,88.38
2018-06-18T07:53:35.463Z,88.09
2018-06-18T07:54:35.456Z,88.95
2018-06-18T07:55:35.421Z,90.16
2018-06-18T07:56:35.393Z,90.16
2018-06-18T07:57:35.417Z,90.16
2018-06-18T07:58:35.342Z,88.61
2018-06-18T07:59:35.317Z,90.10
2018-06-18T08:00:35.312Z,90.30
2018-06-18T08:01:35.272Z,90.78
2018-06-18T08:02:35.244Z,90.58
2018-06-18T08:03:35.282Z,89.81
2018-06-18T08:04:35.210Z,89.14
2018-06-18T08:05:35.180Z,90.97
2018-06-18T08:06:35.156Z,89.43
2018-06-18T08:07:35.127Z,89.91
2018-06-18T08:08:35.107Z,89.43
2018-06-18T08:09:35.094Z,89.62
2018-06-18T08:10:35.058Z,89.67
2018-06-18T08:11:35.032Z,90.24
2018-06-18T08:12:35.004Z,90.05
2018-06-18T08:13:34.989Z,89.47
2018-06-18T08:14:34.976Z,88.99
2018-06-18T08:15:34.943Z,89.37
2018-06-18T08:16:34.915Z,88.99
2018-06-18T08:17:34.892Z,89.76
2018-06-18T08:18:34.870Z,88.60
2018-06-18T08:19:34.845Z,88.70
2018-06-18T08:20:34.828Z,89.76
2018-06-18T08:21:34.803Z,89.51
2018-06-18T08:22:34.774Z,90.38
2018-06-18T08:23:34.755Z,87.88
2018-06-18T08:24:34.728Z,87.78
2018-06-18T08:25:34.725Z,84.89
2018-06-18T08:26:34.681Z,85.46
2018-06-18T08:27:34.658Z,87.49
2018-06-18T08:28:34.642Z,87.20
2018-06-18T08:29:34.623Z,85.66
2018-06-18T08:30:34.594Z,86.00
2018-06-18T08:31:34.579Z,85.61
2018-06-18T08:32:34.547Z,86.39
2018-06-18T08:33:34.515Z,86.39
2018-06-18T08:34:34.502Z,86.72
2018-06-18T08:35:34.479Z,87.88
2018-06-18T08:36:34.449Z,84.36
2018-06-18T08:37:34.435Z,86.14
2018-06-18T08:38:34.401Z,85.85
2018-06-18T08:39:34.383Z,84.89
2018-06-18T08:40:34.363Z,85.75
2018-06-18T08:41:34.343Z,85.85
2018-06-18T08:42:34.307Z,86.14
2018-06-18T08:43:34.293Z,87.30
2018-06-18T08:44:34.266Z,88.17
2018-06-18T08:45:34.242Z,87.20
2018-06-18T08:46:34.246Z,88.11
2018-06-18T08:47:34.196Z,87.24
2018-06-18T08:48:34.169Z,85.12
2018-06-18T08:49:34.143Z,86.38
2018-06-18T08:50:34.166Z,84.06
2018-06-18T08:51:34.098Z,86.47
2018-06-18T08:52:34.082Z,87.34
2018-06-18T08:53:34.056Z,87.05
2018-06-18T08:54:34.037Z,83.58
2018-06-18T08:55:34.009Z,86.38
2018-06-18T08:56:33.988Z,87.77
2018-06-18T08:57:33.968Z,85.84
2018-06-18T08:58:33.941Z,86.13
2018-06-18T08:59:33.918Z,85.36
2018-06-18T09:00:33.889Z,86.52
2018-06-18T09:01:33.868Z,83.91
2018-06-18T09:02:33.860Z,84.68
2018-06-18T09:03:33.823Z,86.32
2018-06-18T09:04:33.808Z,84.58
2018-06-18T09:05:33.857Z,85.06
2018-06-18T09:06:33.833Z,83.72
2018-06-18T09:07:33.734Z,80.87
2018-06-18T09:08:33.711Z,83.96
2018-06-18T09:09:33.690Z,82.03
2018-06-18T09:10:33.668Z,85.99
2018-06-18T09:11:33.638Z,84.44
2018-06-18T09:12:33.625Z,83.00
2018-06-18T09:13:33.597Z,84.48
2018-06-18T09:14:33.585Z,83.62
2018-06-18T09:15:33.545Z,84.10
2018-06-18T09:16:33.525Z,83.33
2018-06-18T09:17:33.509Z,83.42
2018-06-18T09:18:33.495Z,85.64
2018-06-18T09:19:33.461Z,83.85
2018-06-18T09:20:33.438Z,83.18
2018-06-18T09:21:33.408Z,82.11
2018-06-18T09:22:33.393Z,81.40
2018-06-18T09:23:33.376Z,80.82
2018-06-18T09:24:33.348Z,81.98
2018-06-18T09:25:33.320Z,77.44
2018-06-18T09:26:33.300Z,79.17
2018-06-18T09:27:33.282Z,80.58
2018-06-18T09:28:33.247Z,79.91
2018-06-18T09:29:33.290Z,81.93
2018-06-18T09:30:33.224Z,80.87
2018-06-18T09:31:33.201Z,85.50
2018-06-18T09:32:33.225Z,85.84
2018-06-18T09:33:33.136Z,86.03
2018-06-18T09:34:33.121Z,84.10
2018-06-18T09:35:33.095Z,82.46
2018-06-18T09:36:33.066Z,83.23
2018-06-18T09:37:33.044Z,84.39
2018-06-18T09:38:33.030Z,82.36
2018-06-18T09:39:32.999Z,83.14
2018-06-18T09:40:32.979Z,83.04
2018-06-18T09:41:32.952Z,81.88
2018-06-18T09:42:32.935Z,82.84
2018-06-18T09:43:32.904Z,82.56
2018-06-18T09:44:32.892Z,82.75
2018-06-18T09:45:32.859Z,83.81
2018-06-18T09:46:32.845Z,83.42
2018-06-18T09:47:32.822Z,80.72
2018-06-18T09:48:32.801Z,82.36
2018-06-18T09:49:32.770Z,81.68
2018-06-18T09:50:32.749Z,81.55
2018-06-18T09:51:32.732Z,81.07
2018-06-18T09:52:32.702Z,83.87
2018-06-18T09:53:32.677Z,83.09
2018-06-18T09:54:32.662Z,83.00
2018-06-18T09:55:32.629Z,81.84
2018-06-18T09:56:32.613Z,83.29
2018-06-18T09:57:32.587Z,80.49
2018-06-18T09:58:32.587Z,84.06
2018-06-18T09:59:32.542Z,86.57
2018-06-18T10:00:32.520Z,85.64
2018-06-18T10:01:32.497Z,84.88
2018-06-18T10:02:32.476Z,86.13
2018-06-18T10:03:32.447Z,82.75
2018-06-18T10:04:32.429Z,83.04
2018-06-18T10:05:32.406Z,82.84
2018-06-18T10:06:32.380Z,83.04
2018-06-18T10:07:32.353Z,84.10
2018-06-18T10:08:32.434Z,79.75
2018-06-18T10:09:32.318Z,82.94
2018-06-18T10:10:32.324Z,79.56
2018-06-18T10:11:32.264Z,79.47
2018-06-18T10:12:32.244Z,80.53
2018-06-18T10:13:32.223Z,82.65
2018-06-18T10:14:32.197Z,83.37
2018-06-18T10:15:32.171Z,79.41
2018-06-18T10:16:32.157Z,78.73
2018-06-18T10:17:32.131Z,82.40
2018-06-18T10:18:32.114Z,80.80
2018-06-18T10:19:32.125Z,74.00
2018-06-18T10:20:32.093Z,74.19
2018-06-18T10:21:32.070Z,76.80
2018-06-18T10:22:32.593Z,76.32
2018-06-18T10:23:32.005Z,80.41
2018-06-18T10:24:32.014Z,83.12
2018-06-18T10:25:31.948Z,83.36
2018-06-18T10:26:31.935Z,80.46
2018-06-18T10:27:31.903Z,79.49
2018-06-18T10:28:31.879Z,77.07
2018-06-18T10:29:31.864Z,73.49
2018-06-18T10:30:31.836Z,74.27
2018-06-18T10:31:31.818Z,73.49
2018-06-18T10:32:31.787Z,77.32
2018-06-18T10:33:31.765Z,76.39
2018-06-18T10:34:31.746Z,75.52
2018-06-18T10:35:31.725Z,75.33
2018-06-18T10:36:31.702Z,75.23
2018-06-18T10:37:31.674Z,74.75
2018-06-18T10:38:31.758Z,76.10
2018-06-18T10:39:31.629Z,77.17
2018-06-18T10:40:31.612Z,73.97
2018-06-18T10:41:31.594Z,72.81
2018-06-18T10:42:31.565Z,72.88
2018-06-18T10:43:31.541Z,74.04
2018-06-18T10:44:31.520Z,72.58
2018-06-18T10:45:31.492Z,72.74
2018-06-18T10:46:31.474Z,72.64
2018-06-18T10:47:31.453Z,76.42
2018-06-18T10:48:31.447Z,73.32
2018-06-18T10:49:31.409Z,75.64
2018-06-18T10:50:31.384Z,73.71
2018-06-18T10:51:31.366Z,74.38
2018-06-18T10:52:31.341Z,74.48
2018-06-18T10:53:31.322Z,75.54
2018-06-18T10:54:31.312Z,77.19
2018-06-18T10:55:31.278Z,80.86
2018-06-18T10:56:31.246Z,78.83
2018-06-18T10:57:31.229Z,78.06
2018-06-18T10:58:31.208Z,80.76
2018-06-18T10:59:31.180Z,77.28
2018-06-18T11:00:31.171Z,77.09
2018-06-18T11:01:31.141Z,80.66
2018-06-18T11:02:31.109Z,79.12
2018-06-18T11:03:31.097Z,78.06
2018-06-18T11:04:31.068Z,81.05
2018-06-18T11:05:31.051Z,78.06
2018-06-18T11:06:31.020Z,77.00
2018-06-18T11:07:31.000Z,80.08
2018-06-18T11:08:30.981Z,78.11
2018-06-18T11:09:30.959Z,79.08
2018-06-18T11:10:30.937Z,79.89
2018-06-18T11:11:30.912Z,82.69
2018-06-18T11:12:30.891Z,77.57
2018-06-18T11:13:30.862Z,79.31
2018-06-18T11:14:30.845Z,80.76
2018-06-18T11:15:30.825Z,80.18
2018-06-18T11:16:31.037Z,83.27
2018-06-18T11:17:30.777Z,80.66
2018-06-18T11:18:30.752Z,75.26
2018-06-18T11:19:30.744Z,75.26
2018-06-18T11:20:30.705Z,77.15
2018-06-18T11:21:30.686Z,75.02
2018-06-18T11:22:30.661Z,79.47
2018-06-18T11:23:30.640Z,76.95
2018-06-18T11:24:30.631Z,80.82
2018-06-18T11:25:30.659Z,84.58
2018-06-18T11:26:30.669Z,84.43
2018-06-18T11:27:30.552Z,80.57
2018-06-18T11:28:30.584Z,82.02
2018-06-18T11:29:30.495Z,83.56
2018-06-18T11:30:30.488Z,83.75
2018-06-18T11:31:30.462Z,83.27
2018-06-18T11:32:30.434Z,83.27
2018-06-18T11:33:30.416Z,81.82
2018-06-18T11:34:30.388Z,77.86
2018-06-18T11:35:30.400Z,79.12
2018-06-18T11:36:30.335Z,77.76
2018-06-18T11:37:30.316Z,74.58
2018-06-18T11:38:30.304Z,83.18
2018-06-18T11:39:30.385Z,79.22
2018-06-18T11:40:30.251Z,81.34
2018-06-18T11:41:30.224Z,81.44
2018-06-18T11:42:30.211Z,78.06
2018-06-18T11:43:30.302Z,78.06
2018-06-18T11:44:30.165Z,77.28
2018-06-18T11:45:30.151Z,79.50
2018-06-18T11:46:30.111Z,80.86
2018-06-18T11:47:30.095Z,79.31
2018-06-18T11:48:30.071Z,83.18
2018-06-18T11:49:30.053Z,78.69
2018-06-18T11:50:30.026Z,78.64
2018-06-18T11:51:29.997Z,82.60
2018-06-18T11:52:29.999Z,80.66
2018-06-18T11:53:29.952Z,82.11
2018-06-18T11:54:29.939Z,77.86
2018-06-18T11:55:29.907Z,80.66
2018-06-18T11:56:29.889Z,79.41
2018-06-18T11:57:29.869Z,80.57
2018-06-18T11:58:29.924Z,81.82
2018-06-18T11:59:29.831Z,78.73
2018-06-18T12:00:29.790Z,83.37
2018-06-18T12:01:29.807Z,79.50
2018-06-18T12:02:29.757Z,81.05
2018-06-18T12:03:29.723Z,78.06
2018-06-18T12:04:29.713Z,81.44
2018-06-18T12:05:29.686Z,81.15
2018-06-18T12:06:29.656Z,83.56
2018-06-18T12:07:29.641Z,83.66
2018-06-18T12:08:29.609Z,79.70
2018-06-18T12:09:29.600Z,80.38
2018-06-18T12:10:29.565Z,83.27
2018-06-18T12:11:29.552Z,80.57
2018-06-18T12:12:29.525Z,81.44
2018-06-18T12:13:29.502Z,77.28
2018-06-18T12:14:29.482Z,82.56
2018-06-18T12:15:29.460Z,79.47
2018-06-18T12:16:29.431Z,82.46
2018-06-18T12:17:29.411Z,81.49
2018-06-18T12:18:29.386Z,82.79
2018-06-18T12:19:29.367Z,82.07
2018-06-18T12:20:29.336Z,80.05
2018-06-18T12:21:29.319Z,80.91
2018-06-18T12:22:29.344Z,84.20
2018-06-18T12:23:29.272Z,83.62
2018-06-18T12:24:29.251Z,86.17
2018-06-18T12:25:29.221Z,85.01
2018-06-18T12:26:29.209Z,82.46
2018-06-18T12:27:29.177Z,83.62
2018-06-18T12:28:29.155Z,85.55
2018-06-18T12:29:29.167Z,87.58
2018-06-18T12:30:29.106Z,88.69
2018-06-18T12:31:29.087Z,87.15
2018-06-18T12:32:29.078Z,87.34
2018-06-18T12:33:29.042Z,88.31
2018-06-18T12:34:29.039Z,88.59
2018-06-18T12:35:29.022Z,89.56
2018-06-18T12:36:28.972Z,89.17
2018-06-18T12:37:28.967Z,89.56
2018-06-18T12:38:28.943Z,89.85
2018-06-18T12:39:28.910Z,90.05
2018-06-18T12:40:28.883Z,89.95
2018-06-18T12:41:28.995Z,89.65
2018-06-18T12:42:28.836Z,89.95
2018-06-18T12:43:28.821Z,89.51
2018-06-18T12:44:28.791Z,89.90
2018-06-18T12:45:28.768Z,88.55
2018-06-18T12:46:28.747Z,88.26
2018-06-18T12:47:28.723Z,88.84
2018-06-18T12:48:28.708Z,88.45
2018-06-18T12:49:28.680Z,88.02
2018-06-18T12:50:28.649Z,83.78
2018-06-18T12:51:28.625Z,84.55
2018-06-18T12:52:28.608Z,82.34